sensor_id;sensor_type;location;lat;lon;timestamp;temperature;humidity
42989;DHT22;28622;43.716;20.668;2022-08-20T00:02:19;21.90;99.90
42989;DHT22;28622;43.716;20.668;2022-08-20T00:04:45;22.00;99.90
42989;DHT22;28622;43.716;20.668;2022-08-20T00:07:12;22.00;99.90
42989;DHT22;28622;43.716;20.668;2022-08-20T00:09:38;22.00;99.90
42989;DHT22;28622;43.716;20.668;2022-08-20T00:12:06;22.10;99.90
42989;DHT22;28622;43.716;20.668;2022-08-20T00:14:33;21.90;99.90
42989;DHT22;28622;43.716;20.668;2022-08-20T00:16:59;21.90;99.90
42989;DHT22;28622;43.716;20.668;2022-08-20T00:19:25;21.90;99.90
42989;DHT22;28622;43.716;20.668;2022-08-20T00:21:51;22.00;99.90
42989;DHT22;28622;43.716;20.668;2022-08-20T00:24:17;22.00;99.90
42989;DHT22;28622;43.716;20.668;2022-08-20T00:26:43;22.00;99.90
42989;DHT22;28622;43.716;20.668;2022-08-20T00:29:08;22.00;99.90
42989;DHT22;28622;43.716;20.668;2022-08-20T00:31:34;22.00;99.90
42989;DHT22;28622;43.716;20.668;2022-08-20T00:34:00;22.10;99.90
42989;DHT22;28622;43.716;20.668;2022-08-20T00:36:26;22.00;99.90
42989;DHT22;28622;43.716;20.668;2022-08-20T00:38:52;22.00;99.90
42989;DHT22;28622;43.716;20.668;2022-08-20T00:41:22;22.00;99.90
42989;DHT22;28622;43.716;20.668;2022-08-20T00:44:04;22.10;99.90
42989;DHT22;28622;43.716;20.668;2022-08-20T00:46:32;22.00;99.90
42989;DHT22;28622;43.716;20.668;2022-08-20T00:48:59;22.00;99.90
42989;DHT22;28622;43.716;20.668;2022-08-20T00:51:47;22.10;99.90
42989;DHT22;28622;43.716;20.668;2022-08-20T00:54:24;22.10;99.90
42989;DHT22;28622;43.716;20.668;2022-08-20T00:56:59;22.10;99.90
42989;DHT22;28622;43.716;20.668;2022-08-20T00:59:30;22.00;99.90
42989;DHT22;28622;43.716;20.668;2022-08-20T01:01:57;21.90;99.90
42989;DHT22;28622;43.716;20.668;2022-08-20T01:04:30;21.90;99.90
42989;DHT22;28622;43.716;20.668;2022-08-20T01:06:58;22.00;99.90
42989;DHT22;28622;43.716;20.668;2022-08-20T01:09:23;22.00;99.90
42989;DHT22;28622;43.716;20.668;2022-08-20T01:11:49;22.00;99.90
42989;DHT22;28622;43.716;20.668;2022-08-20T01:14:15;22.10;99.90
42989;DHT22;28622;43.716;20.668;2022-08-20T01:17:20;22.10;99.90
42989;DHT22;28622;43.716;20.668;2022-08-20T01:19:57;22.00;99.90
42989;DHT22;28622;43.716;20.668;2022-08-20T01:26:34;22.10;99.90
42989;DHT22;28622;43.716;20.668;2022-08-20T01:28:58;22.00;99.90
42989;DHT22;28622;43.716;20.668;2022-08-20T01:31:29;22.00;99.90
42989;DHT22;28622;43.716;20.668;2022-08-20T01:33:57;22.00;99.90
42989;DHT22;28622;43.716;20.668;2022-08-20T01:36:33;22.00;99.90
42989;DHT22;28622;43.716;20.668;2022-08-20T01:39:00;21.90;99.90
42989;DHT22;28622;43.716;20.668;2022-08-20T01:43:55;21.90;99.90
42989;DHT22;28622;43.716;20.668;2022-08-20T01:46:24;21.90;99.90
42989;DHT22;28622;43.716;20.668;2022-08-20T01:48:52;21.90;99.90
42989;DHT22;28622;43.716;20.668;2022-08-20T01:51:23;21.90;99.90
42989;DHT22;28622;43.716;20.668;2022-08-20T01:53:52;21.80;99.90
42989;DHT22;28622;43.716;20.668;2022-08-20T01:56:22;21.70;99.90
42989;DHT22;28622;43.716;20.668;2022-08-20T01:58:50;21.70;99.90
42989;DHT22;28622;43.716;20.668;2022-08-20T02:03:53;21.70;99.90
42989;DHT22;28622;43.716;20.668;2022-08-20T02:06:21;21.70;99.90
42989;DHT22;28622;43.716;20.668;2022-08-20T02:08:58;21.70;99.90
42989;DHT22;28622;43.716;20.668;2022-08-20T02:11:25;21.70;99.90
42989;DHT22;28622;43.716;20.668;2022-08-20T02:13:52;21.60;99.90
42989;DHT22;28622;43.716;20.668;2022-08-20T02:16:33;21.60;99.90
42989;DHT22;28622;43.716;20.668;2022-08-20T02:19:10;21.60;99.90
42989;DHT22;28622;43.716;20.668;2022-08-20T02:21:40;21.60;99.90
42989;DHT22;28622;43.716;20.668;2022-08-20T02:24:10;21.50;99.90
42989;DHT22;28622;43.716;20.668;2022-08-20T02:26:36;21.40;99.90
42989;DHT22;28622;43.716;20.668;2022-08-20T02:29:06;21.40;99.90
42989;DHT22;28622;43.716;20.668;2022-08-20T02:31:33;21.40;99.90
42989;DHT22;28622;43.716;20.668;2022-08-20T02:34:01;21.40;99.90
42989;DHT22;28622;43.716;20.668;2022-08-20T02:36:27;21.50;99.90
42989;DHT22;28622;43.716;20.668;2022-08-20T02:38:53;21.50;99.90
42989;DHT22;28622;43.716;20.668;2022-08-20T02:41:19;21.50;99.90
42989;DHT22;28622;43.716;20.668;2022-08-20T02:43:47;21.50;99.90
42989;DHT22;28622;43.716;20.668;2022-08-20T02:46:14;21.60;99.90
42989;DHT22;28622;43.716;20.668;2022-08-20T02:48:40;21.60;99.90
42989;DHT22;28622;43.716;20.668;2022-08-20T02:51:07;21.50;99.90
42989;DHT22;28622;43.716;20.668;2022-08-20T02:53:35;21.50;99.90
42989;DHT22;28622;43.716;20.668;2022-08-20T02:56:03;21.50;99.90
42989;DHT22;28622;43.716;20.668;2022-08-20T02:58:29;21.60;99.90
42989;DHT22;28622;43.716;20.668;2022-08-20T03:00:55;21.60;99.90
42989;DHT22;28622;43.716;20.668;2022-08-20T03:03:22;21.60;99.90
42989;DHT22;28622;43.716;20.668;2022-08-20T03:05:51;21.60;99.90
42989;DHT22;28622;43.716;20.668;2022-08-20T03:08:17;21.60;99.90
42989;DHT22;28622;43.716;20.668;2022-08-20T03:10:45;21.70;99.90
42989;DHT22;28622;43.716;20.668;2022-08-20T03:13:11;21.70;99.90
42989;DHT22;28622;43.716;20.668;2022-08-20T03:15:44;21.60;99.90
42989;DHT22;28622;43.716;20.668;2022-08-20T03:18:10;21.60;99.90
42989;DHT22;28622;43.716;20.668;2022-08-20T03:20:36;21.50;99.90
42989;DHT22;28622;43.716;20.668;2022-08-20T03:23:02;21.30;99.90
42989;DHT22;28622;43.716;20.668;2022-08-20T03:27:54;21.30;99.90
42989;DHT22;28622;43.716;20.668;2022-08-20T03:30:23;21.20;99.90
42989;DHT22;28622;43.716;20.668;2022-08-20T03:32:49;21.00;99.90
42989;DHT22;28622;43.716;20.668;2022-08-20T03:35:17;21.00;99.90
42989;DHT22;28622;43.716;20.668;2022-08-20T03:37:43;21.00;99.90
42989;DHT22;28622;43.716;20.668;2022-08-20T03:40:12;20.90;99.90
42989;DHT22;28622;43.716;20.668;2022-08-20T03:42:40;20.80;99.90
42989;DHT22;28622;43.716;20.668;2022-08-20T03:45:07;20.80;99.90
42989;DHT22;28622;43.716;20.668;2022-08-20T03:47:33;20.90;99.90
42989;DHT22;28622;43.716;20.668;2022-08-20T03:50:00;20.90;99.90
42989;DHT22;28622;43.716;20.668;2022-08-20T03:52:27;20.90;99.90
42989;DHT22;28622;43.716;20.668;2022-08-20T03:54:55;21.00;99.90
42989;DHT22;28622;43.716;20.668;2022-08-20T03:57:21;21.00;99.90
42989;DHT22;28622;43.716;20.668;2022-08-20T03:59:47;21.10;99.90
42989;DHT22;28622;43.716;20.668;2022-08-20T04:02:13;21.10;99.90
42989;DHT22;28622;43.716;20.668;2022-08-20T04:04:41;21.10;99.90
42989;DHT22;28622;43.716;20.668;2022-08-20T04:07:16;21.10;99.90
42989;DHT22;28622;43.716;20.668;2022-08-20T04:09:43;21.10;99.90
42989;DHT22;28622;43.716;20.668;2022-08-20T04:12:09;21.00;99.90
42989;DHT22;28622;43.716;20.668;2022-08-20T04:14:38;21.00;99.90
42989;DHT22;28622;43.716;20.668;2022-08-20T04:17:09;21.00;99.90
42989;DHT22;28622;43.716;20.668;2022-08-20T04:19:36;21.00;99.90
42989;DHT22;28622;43.716;20.668;2022-08-20T04:22:03;21.00;99.90
42989;DHT22;28622;43.716;20.668;2022-08-20T04:24:29;21.00;99.90
42989;DHT22;28622;43.716;20.668;2022-08-20T04:26:55;21.10;99.90
42989;DHT22;28622;43.716;20.668;2022-08-20T04:29:21;21.30;99.90
42989;DHT22;28622;43.716;20.668;2022-08-20T04:31:47;21.30;99.90
42989;DHT22;28622;43.716;20.668;2022-08-20T04:34:13;21.30;99.90
42989;DHT22;28622;43.716;20.668;2022-08-20T04:36:41;21.30;99.90
42989;DHT22;28622;43.716;20.668;2022-08-20T04:39:07;21.30;99.90
42989;DHT22;28622;43.716;20.668;2022-08-20T04:41:32;21.30;99.90
42989;DHT22;28622;43.716;20.668;2022-08-20T04:43:58;21.40;99.90
42989;DHT22;28622;43.716;20.668;2022-08-20T04:46:26;21.50;99.90
42989;DHT22;28622;43.716;20.668;2022-08-20T04:48:53;21.50;99.90
42989;DHT22;28622;43.716;20.668;2022-08-20T04:51:20;21.50;99.90
42989;DHT22;28622;43.716;20.668;2022-08-20T04:53:46;21.50;99.90
42989;DHT22;28622;43.716;20.668;2022-08-20T04:56:11;21.60;99.90
42989;DHT22;28622;43.716;20.668;2022-08-20T04:58:39;21.60;99.90
42989;DHT22;28622;43.716;20.668;2022-08-20T05:01:10;21.60;99.90
42989;DHT22;28622;43.716;20.668;2022-08-20T05:03:37;21.70;99.90
42989;DHT22;28622;43.716;20.668;2022-08-20T05:06:05;21.80;99.90
42989;DHT22;28622;43.716;20.668;2022-08-20T05:08:32;21.80;99.90
42989;DHT22;28622;43.716;20.668;2022-08-20T05:10:58;21.90;99.90
42989;DHT22;28622;43.716;20.668;2022-08-20T05:13:25;22.00;99.90
42989;DHT22;28622;43.716;20.668;2022-08-20T05:15:52;22.10;99.90
42989;DHT22;28622;43.716;20.668;2022-08-20T05:18:20;22.20;99.90
42989;DHT22;28622;43.716;20.668;2022-08-20T05:20:46;22.20;99.90
42989;DHT22;28622;43.716;20.668;2022-08-20T05:23:14;22.30;99.90
42989;DHT22;28622;43.716;20.668;2022-08-20T05:25:41;22.30;99.90
42989;DHT22;28622;43.716;20.668;2022-08-20T05:28:11;22.40;99.90
42989;DHT22;28622;43.716;20.668;2022-08-20T05:30:40;22.40;99.90
42989;DHT22;28622;43.716;20.668;2022-08-20T05:33:08;22.50;99.90
42989;DHT22;28622;43.716;20.668;2022-08-20T05:35:36;22.50;99.90
42989;DHT22;28622;43.716;20.668;2022-08-20T05:38:07;22.50;99.90
42989;DHT22;28622;43.716;20.668;2022-08-20T05:40:34;22.60;99.90
42989;DHT22;28622;43.716;20.668;2022-08-20T05:43:00;22.60;99.90
42989;DHT22;28622;43.716;20.668;2022-08-20T05:45:31;22.70;99.90
42989;DHT22;28622;43.716;20.668;2022-08-20T05:47:58;22.70;99.90
42989;DHT22;28622;43.716;20.668;2022-08-20T05:50:28;22.70;99.90
42989;DHT22;28622;43.716;20.668;2022-08-20T05:52:53;22.80;99.90
42989;DHT22;28622;43.716;20.668;2022-08-20T05:55:19;22.80;99.90
42989;DHT22;28622;43.716;20.668;2022-08-20T05:57:45;22.80;99.90
42989;DHT22;28622;43.716;20.668;2022-08-20T06:00:12;22.90;99.90
42989;DHT22;28622;43.716;20.668;2022-08-20T06:02:39;23.00;99.90
42989;DHT22;28622;43.716;20.668;2022-08-20T06:05:24;23.10;99.90
42989;DHT22;28622;43.716;20.668;2022-08-20T06:07:51;23.20;99.90
42989;DHT22;28622;43.716;20.668;2022-08-20T06:10:17;23.30;99.90
42989;DHT22;28622;43.716;20.668;2022-08-20T06:12:42;23.30;99.90
42989;DHT22;28622;43.716;20.668;2022-08-20T06:15:11;23.40;99.90
42989;DHT22;28622;43.716;20.668;2022-08-20T06:17:38;23.30;99.90
42989;DHT22;28622;43.716;20.668;2022-08-20T06:20:07;23.30;99.90
42989;DHT22;28622;43.716;20.668;2022-08-20T06:22:33;23.50;99.90
42989;DHT22;28622;43.716;20.668;2022-08-20T06:25:00;23.60;99.90
42989;DHT22;28622;43.716;20.668;2022-08-20T06:27:26;23.80;99.90
42989;DHT22;28622;43.716;20.668;2022-08-20T06:29:53;24.00;99.90
42989;DHT22;28622;43.716;20.668;2022-08-20T06:32:20;24.10;99.90
42989;DHT22;28622;43.716;20.668;2022-08-20T06:34:47;24.10;99.90
42989;DHT22;28622;43.716;20.668;2022-08-20T06:37:26;24.20;99.90
42989;DHT22;28622;43.716;20.668;2022-08-20T06:39:53;24.20;99.90
42989;DHT22;28622;43.716;20.668;2022-08-20T06:42:19;24.00;99.90
42989;DHT22;28622;43.716;20.668;2022-08-20T06:44:46;24.10;99.90
42989;DHT22;28622;43.716;20.668;2022-08-20T06:47:15;24.00;99.90
42989;DHT22;28622;43.716;20.668;2022-08-20T06:49:42;24.00;99.90
42989;DHT22;28622;43.716;20.668;2022-08-20T06:52:08;23.90;99.90
42989;DHT22;28622;43.716;20.668;2022-08-20T06:54:34;23.80;99.90
42989;DHT22;28622;43.716;20.668;2022-08-20T06:57:03;23.80;99.90
42989;DHT22;28622;43.716;20.668;2022-08-20T06:59:29;23.90;99.90
42989;DHT22;28622;43.716;20.668;2022-08-20T07:01:54;23.90;99.90
42989;DHT22;28622;43.716;20.668;2022-08-20T07:04:24;23.90;99.90
42989;DHT22;28622;43.716;20.668;2022-08-20T07:06:54;23.90;99.90
42989;DHT22;28622;43.716;20.668;2022-08-20T07:09:23;23.90;99.90
42989;DHT22;28622;43.716;20.668;2022-08-20T07:11:49;23.90;99.90
42989;DHT22;28622;43.716;20.668;2022-08-20T07:14:18;23.90;99.90
42989;DHT22;28622;43.716;20.668;2022-08-20T07:16:45;23.80;99.90
42989;DHT22;28622;43.716;20.668;2022-08-20T07:19:14;23.70;99.90
42989;DHT22;28622;43.716;20.668;2022-08-20T07:21:40;23.60;99.90
42989;DHT22;28622;43.716;20.668;2022-08-20T07:24:06;23.50;99.90
42989;DHT22;28622;43.716;20.668;2022-08-20T07:26:34;23.50;99.90
42989;DHT22;28622;43.716;20.668;2022-08-20T07:29:00;23.40;99.90
42989;DHT22;28622;43.716;20.668;2022-08-20T07:31:25;23.30;99.90
42989;DHT22;28622;43.716;20.668;2022-08-20T07:34:09;23.30;99.90
42989;DHT22;28622;43.716;20.668;2022-08-20T07:36:36;23.20;99.90
42989;DHT22;28622;43.716;20.668;2022-08-20T07:39:02;23.20;99.90
42989;DHT22;28622;43.716;20.668;2022-08-20T07:41:28;23.20;99.90
42989;DHT22;28622;43.716;20.668;2022-08-20T07:43:54;23.30;99.90
42989;DHT22;28622;43.716;20.668;2022-08-20T07:46:20;23.30;99.90
42989;DHT22;28622;43.716;20.668;2022-08-20T07:48:47;23.20;99.90
42989;DHT22;28622;43.716;20.668;2022-08-20T07:51:16;23.10;99.90
42989;DHT22;28622;43.716;20.668;2022-08-20T07:53:43;23.20;99.90
42989;DHT22;28622;43.716;20.668;2022-08-20T07:56:13;23.10;99.90
42989;DHT22;28622;43.716;20.668;2022-08-20T07:58:45;23.20;99.90
42989;DHT22;28622;43.716;20.668;2022-08-20T08:01:17;23.20;99.90
42989;DHT22;28622;43.716;20.668;2022-08-20T08:03:44;23.20;99.90
42989;DHT22;28622;43.716;20.668;2022-08-20T08:06:10;23.20;99.90
42989;DHT22;28622;43.716;20.668;2022-08-20T08:08:37;23.20;99.90
42989;DHT22;28622;43.716;20.668;2022-08-20T08:11:05;23.20;99.90
42989;DHT22;28622;43.716;20.668;2022-08-20T08:13:34;23.20;99.90
42989;DHT22;28622;43.716;20.668;2022-08-20T08:16:03;23.20;99.90
42989;DHT22;28622;43.716;20.668;2022-08-20T08:18:39;23.20;99.90
42989;DHT22;28622;43.716;20.668;2022-08-20T08:21:07;23.20;99.90
42989;DHT22;28622;43.716;20.668;2022-08-20T08:23:33;23.20;99.90
42989;DHT22;28622;43.716;20.668;2022-08-20T08:25:59;23.20;99.90
42989;DHT22;28622;43.716;20.668;2022-08-20T08:28:25;23.20;99.90
42989;DHT22;28622;43.716;20.668;2022-08-20T08:30:54;23.30;99.90
42989;DHT22;28622;43.716;20.668;2022-08-20T08:33:25;23.40;99.90
42989;DHT22;28622;43.716;20.668;2022-08-20T08:36:01;23.60;99.90
42989;DHT22;28622;43.716;20.668;2022-08-20T08:38:28;23.60;99.90
42989;DHT22;28622;43.716;20.668;2022-08-20T08:40:56;23.70;99.90
42989;DHT22;28622;43.716;20.668;2022-08-20T08:43:25;23.90;99.90
42989;DHT22;28622;43.716;20.668;2022-08-20T08:46:02;23.70;99.90
42989;DHT22;28622;43.716;20.668;2022-08-20T08:48:36;23.70;99.90
42989;DHT22;28622;43.716;20.668;2022-08-20T08:51:05;23.70;99.90
42989;DHT22;28622;43.716;20.668;2022-08-20T08:53:40;23.60;99.90
42989;DHT22;28622;43.716;20.668;2022-08-20T08:56:09;23.70;99.90
42989;DHT22;28622;43.716;20.668;2022-08-20T08:58:35;23.70;99.90
42989;DHT22;28622;43.716;20.668;2022-08-20T09:01:13;23.70;99.90
42989;DHT22;28622;43.716;20.668;2022-08-20T09:03:40;23.70;99.90
42989;DHT22;28622;43.716;20.668;2022-08-20T09:06:13;23.90;99.90
42989;DHT22;28622;43.716;20.668;2022-08-20T09:08:51;23.90;99.90
42989;DHT22;28622;43.716;20.668;2022-08-20T09:11:20;24.10;99.90
42989;DHT22;28622;43.716;20.668;2022-08-20T09:13:46;24.10;99.90
42989;DHT22;28622;43.716;20.668;2022-08-20T09:16:13;24.00;99.90
42989;DHT22;28622;43.716;20.668;2022-08-20T09:18:39;24.00;99.90
42989;DHT22;28622;43.716;20.668;2022-08-20T09:21:05;24.00;99.90
42989;DHT22;28622;43.716;20.668;2022-08-20T09:23:32;24.00;99.90
42989;DHT22;28622;43.716;20.668;2022-08-20T09:25:58;24.10;99.90
42989;DHT22;28622;43.716;20.668;2022-08-20T09:28:24;24.00;99.90
42989;DHT22;28622;43.716;20.668;2022-08-20T09:30:50;23.90;99.90
42989;DHT22;28622;43.716;20.668;2022-08-20T09:33:16;23.80;99.90
42989;DHT22;28622;43.716;20.668;2022-08-20T09:35:42;23.80;99.90
42989;DHT22;28622;43.716;20.668;2022-08-20T09:38:10;23.80;99.90
42989;DHT22;28622;43.716;20.668;2022-08-20T09:40:36;23.70;99.90
42989;DHT22;28622;43.716;20.668;2022-08-20T09:43:04;23.70;99.90
42989;DHT22;28622;43.716;20.668;2022-08-20T09:45:30;23.60;99.90
42989;DHT22;28622;43.716;20.668;2022-08-20T09:47:56;23.50;99.90
42989;DHT22;28622;43.716;20.668;2022-08-20T09:50:22;23.50;99.90
42989;DHT22;28622;43.716;20.668;2022-08-20T09:52:49;23.50;99.90
42989;DHT22;28622;43.716;20.668;2022-08-20T09:57:51;23.70;99.90
42989;DHT22;28622;43.716;20.668;2022-08-20T10:00:18;23.80;99.90
42989;DHT22;28622;43.716;20.668;2022-08-20T10:02:44;24.00;99.90
42989;DHT22;28622;43.716;20.668;2022-08-20T10:05:10;24.20;99.90
42989;DHT22;28622;43.716;20.668;2022-08-20T10:07:40;24.20;99.90
42989;DHT22;28622;43.716;20.668;2022-08-20T10:10:08;24.30;99.90
42989;DHT22;28622;43.716;20.668;2022-08-20T10:12:35;24.40;99.90
42989;DHT22;28622;43.716;20.668;2022-08-20T10:15:00;24.70;99.90
42989;DHT22;28622;43.716;20.668;2022-08-20T10:17:26;24.70;99.90
42989;DHT22;28622;43.716;20.668;2022-08-20T10:19:52;24.70;99.90
42989;DHT22;28622;43.716;20.668;2022-08-20T10:22:17;24.90;99.90
42989;DHT22;28622;43.716;20.668;2022-08-20T10:24:45;25.00;99.90
42989;DHT22;28622;43.716;20.668;2022-08-20T10:27:10;25.30;99.90
42989;DHT22;28622;43.716;20.668;2022-08-20T10:29:39;25.60;99.90
42989;DHT22;28622;43.716;20.668;2022-08-20T10:32:14;25.70;99.90
42989;DHT22;28622;43.716;20.668;2022-08-20T10:34:41;25.90;99.90
42989;DHT22;28622;43.716;20.668;2022-08-20T10:37:08;25.80;99.90
42989;DHT22;28622;43.716;20.668;2022-08-20T10:39:35;25.90;99.90
42989;DHT22;28622;43.716;20.668;2022-08-20T10:42:01;25.70;99.90
42989;DHT22;28622;43.716;20.668;2022-08-20T10:44:26;25.80;99.90
42989;DHT22;28622;43.716;20.668;2022-08-20T10:46:52;25.70;99.90
42989;DHT22;28622;43.716;20.668;2022-08-20T10:49:18;25.70;99.90
42989;DHT22;28622;43.716;20.668;2022-08-20T10:51:44;25.70;99.90
42989;DHT22;28622;43.716;20.668;2022-08-20T10:54:09;25.60;99.90
42989;DHT22;28622;43.716;20.668;2022-08-20T10:56:35;25.60;99.90
42989;DHT22;28622;43.716;20.668;2022-08-20T10:59:01;25.70;99.90
42989;DHT22;28622;43.716;20.668;2022-08-20T11:01:27;25.70;99.90
42989;DHT22;28622;43.716;20.668;2022-08-20T11:03:53;25.90;99.90
42989;DHT22;28622;43.716;20.668;2022-08-20T11:06:18;26.10;99.90
42989;DHT22;28622;43.716;20.668;2022-08-20T11:08:47;26.00;99.90
42989;DHT22;28622;43.716;20.668;2022-08-20T11:11:13;25.90;99.90
42989;DHT22;28622;43.716;20.668;2022-08-20T11:13:39;25.80;99.90
42989;DHT22;28622;43.716;20.668;2022-08-20T11:16:04;25.60;99.90
42989;DHT22;28622;43.716;20.668;2022-08-20T11:18:30;25.40;99.90
42989;DHT22;28622;43.716;20.668;2022-08-20T11:20:57;25.20;99.90
42989;DHT22;28622;43.716;20.668;2022-08-20T11:23:23;25.10;99.90
42989;DHT22;28622;43.716;20.668;2022-08-20T11:25:49;24.80;99.90
42989;DHT22;28622;43.716;20.668;2022-08-20T11:28:15;24.60;99.90
42989;DHT22;28622;43.716;20.668;2022-08-20T11:30:41;24.40;99.90
42989;DHT22;28622;43.716;20.668;2022-08-20T11:33:07;24.40;99.90
42989;DHT22;28622;43.716;20.668;2022-08-20T11:35:34;24.30;99.90
42989;DHT22;28622;43.716;20.668;2022-08-20T11:38:00;24.40;99.90
42989;DHT22;28622;43.716;20.668;2022-08-20T11:40:28;24.50;99.90
42989;DHT22;28622;43.716;20.668;2022-08-20T11:42:54;24.50;99.90
42989;DHT22;28622;43.716;20.668;2022-08-20T11:45:20;24.60;99.90
42989;DHT22;28622;43.716;20.668;2022-08-20T11:47:46;24.60;99.90
42989;DHT22;28622;43.716;20.668;2022-08-20T11:50:15;24.70;99.90
42989;DHT22;28622;43.716;20.668;2022-08-20T11:52:41;24.70;99.90
42989;DHT22;28622;43.716;20.668;2022-08-20T11:55:09;24.80;99.90
42989;DHT22;28622;43.716;20.668;2022-08-20T11:57:40;24.70;99.90
42989;DHT22;28622;43.716;20.668;2022-08-20T12:00:09;24.70;99.90
42989;DHT22;28622;43.716;20.668;2022-08-20T12:02:38;24.70;99.90
42989;DHT22;28622;43.716;20.668;2022-08-20T12:05:04;24.70;99.90
42989;DHT22;28622;43.716;20.668;2022-08-20T12:07:30;24.60;99.90
42989;DHT22;28622;43.716;20.668;2022-08-20T12:09:56;24.70;99.90
42989;DHT22;28622;43.716;20.668;2022-08-20T12:12:23;24.80;99.90
42989;DHT22;28622;43.716;20.668;2022-08-20T12:14:53;24.80;99.90
42989;DHT22;28622;43.716;20.668;2022-08-20T12:17:27;24.80;99.90
42989;DHT22;28622;43.716;20.668;2022-08-20T12:19:55;24.80;99.90
42989;DHT22;28622;43.716;20.668;2022-08-20T12:22:22;24.80;99.90
42989;DHT22;28622;43.716;20.668;2022-08-20T12:24:48;25.00;99.90
42989;DHT22;28622;43.716;20.668;2022-08-20T12:27:17;24.90;99.90
42989;DHT22;28622;43.716;20.668;2022-08-20T12:29:46;25.10;99.90
42989;DHT22;28622;43.716;20.668;2022-08-20T12:32:12;25.40;99.90
42989;DHT22;28622;43.716;20.668;2022-08-20T12:34:40;25.60;99.90
42989;DHT22;28622;43.716;20.668;2022-08-20T12:37:18;25.50;99.90
42989;DHT22;28622;43.716;20.668;2022-08-20T12:39:47;25.20;99.90
42989;DHT22;28622;43.716;20.668;2022-08-20T12:42:13;25.00;99.90
42989;DHT22;28622;43.716;20.668;2022-08-20T12:44:40;24.80;99.90
42989;DHT22;28622;43.716;20.668;2022-08-20T12:49:46;24.50;99.90
42989;DHT22;28622;43.716;20.668;2022-08-20T12:52:14;24.40;99.90
42989;DHT22;28622;43.716;20.668;2022-08-20T12:54:40;24.30;99.90
42989;DHT22;28622;43.716;20.668;2022-08-20T12:57:10;24.30;99.90
42989;DHT22;28622;43.716;20.668;2022-08-20T12:59:37;24.40;99.90
42989;DHT22;28622;43.716;20.668;2022-08-20T13:02:03;24.60;99.90
42989;DHT22;28622;43.716;20.668;2022-08-20T13:04:28;24.80;99.90
42989;DHT22;28622;43.716;20.668;2022-08-20T13:07:00;24.80;99.90
42989;DHT22;28622;43.716;20.668;2022-08-20T13:09:26;24.80;99.90
42989;DHT22;28622;43.716;20.668;2022-08-20T13:11:51;24.80;99.90
42989;DHT22;28622;43.716;20.668;2022-08-20T13:14:17;24.70;99.90
42989;DHT22;28622;43.716;20.668;2022-08-20T13:16:43;24.40;99.90
42989;DHT22;28622;43.716;20.668;2022-08-20T13:19:09;24.50;99.90
42989;DHT22;28622;43.716;20.668;2022-08-20T13:21:35;24.60;99.90
42989;DHT22;28622;43.716;20.668;2022-08-20T13:24:01;24.60;99.90
42989;DHT22;28622;43.716;20.668;2022-08-20T13:26:27;24.60;99.90
42989;DHT22;28622;43.716;20.668;2022-08-20T13:28:53;24.80;99.90
42989;DHT22;28622;43.716;20.668;2022-08-20T13:31:19;25.10;99.90
42989;DHT22;28622;43.716;20.668;2022-08-20T13:33:45;25.10;99.90
42989;DHT22;28622;43.716;20.668;2022-08-20T13:36:11;25.40;99.90
42989;DHT22;28622;43.716;20.668;2022-08-20T13:38:36;25.70;99.90
42989;DHT22;28622;43.716;20.668;2022-08-20T13:41:02;26.00;99.90
42989;DHT22;28622;43.716;20.668;2022-08-20T13:43:28;26.20;99.90
42989;DHT22;28622;43.716;20.668;2022-08-20T13:45:54;26.30;99.90
42989;DHT22;28622;43.716;20.668;2022-08-20T13:48:19;26.60;99.90
42989;DHT22;28622;43.716;20.668;2022-08-20T13:50:45;27.00;99.90
42989;DHT22;28622;43.716;20.668;2022-08-20T13:53:11;27.20;99.90
42989;DHT22;28622;43.716;20.668;2022-08-20T13:55:37;26.90;99.90
42989;DHT22;28622;43.716;20.668;2022-08-20T13:58:06;26.50;99.90
42989;DHT22;28622;43.716;20.668;2022-08-20T14:00:33;26.30;99.90
42989;DHT22;28622;43.716;20.668;2022-08-20T14:03:00;26.00;99.90
42989;DHT22;28622;43.716;20.668;2022-08-20T14:05:27;25.70;99.90
42989;DHT22;28622;43.716;20.668;2022-08-20T14:07:53;25.60;99.90
42989;DHT22;28622;43.716;20.668;2022-08-20T14:10:22;25.60;99.90
42989;DHT22;28622;43.716;20.668;2022-08-20T14:12:49;25.50;99.90
42989;DHT22;28622;43.716;20.668;2022-08-20T14:15:16;25.40;99.90
42989;DHT22;28622;43.716;20.668;2022-08-20T14:17:52;25.40;99.90
42989;DHT22;28622;43.716;20.668;2022-08-20T14:20:20;25.50;99.90
42989;DHT22;28622;43.716;20.668;2022-08-20T14:22:46;25.60;99.90
42989;DHT22;28622;43.716;20.668;2022-08-20T14:25:17;25.50;99.90
42989;DHT22;28622;43.716;20.668;2022-08-20T14:27:43;25.40;99.90
42989;DHT22;28622;43.716;20.668;2022-08-20T14:30:15;25.30;99.90
42989;DHT22;28622;43.716;20.668;2022-08-20T14:32:42;25.30;99.90
42989;DHT22;28622;43.716;20.668;2022-08-20T14:35:08;25.30;99.90
42989;DHT22;28622;43.716;20.668;2022-08-20T14:37:37;25.20;99.90
42989;DHT22;28622;43.716;20.668;2022-08-20T14:40:06;25.00;99.90
42989;DHT22;28622;43.716;20.668;2022-08-20T14:42:33;25.00;99.90
42989;DHT22;28622;43.716;20.668;2022-08-20T14:44:59;25.00;99.90
42989;DHT22;28622;43.716;20.668;2022-08-20T14:47:30;25.00;99.90
42989;DHT22;28622;43.716;20.668;2022-08-20T14:49:59;25.00;99.90
42989;DHT22;28622;43.716;20.668;2022-08-20T14:52:30;25.00;99.90
42989;DHT22;28622;43.716;20.668;2022-08-20T14:54:57;24.80;99.90
42989;DHT22;28622;43.716;20.668;2022-08-20T14:57:23;24.70;99.90
42989;DHT22;28622;43.716;20.668;2022-08-20T14:59:51;24.60;99.90
42989;DHT22;28622;43.716;20.668;2022-08-20T15:02:17;24.60;99.90
42989;DHT22;28622;43.716;20.668;2022-08-20T15:04:43;24.60;99.90
42989;DHT22;28622;43.716;20.668;2022-08-20T15:07:30;24.60;99.90
42989;DHT22;28622;43.716;20.668;2022-08-20T15:09:57;24.70;99.90
42989;DHT22;28622;43.716;20.668;2022-08-20T15:12:25;24.90;99.90
42989;DHT22;28622;43.716;20.668;2022-08-20T15:14:51;25.20;99.90
42989;DHT22;28622;43.716;20.668;2022-08-20T15:17:22;25.30;99.90
42989;DHT22;28622;43.716;20.668;2022-08-20T15:19:48;25.50;99.90
42989;DHT22;28622;43.716;20.668;2022-08-20T15:22:15;25.50;99.90
42989;DHT22;28622;43.716;20.668;2022-08-20T15:24:41;25.40;99.90
42989;DHT22;28622;43.716;20.668;2022-08-20T15:27:14;25.50;99.90
42989;DHT22;28622;43.716;20.668;2022-08-20T15:29:40;25.70;99.90
42989;DHT22;28622;43.716;20.668;2022-08-20T15:32:06;25.90;99.90
42989;DHT22;28622;43.716;20.668;2022-08-20T15:34:34;26.00;99.90
42989;DHT22;28622;43.716;20.668;2022-08-20T15:37:13;26.10;99.90